Report METAR



Share

METAR è un messaggio meteo emesso in ambito aeroportuale, ed è l'acronimo di METeorological Aerodrome Report. La figura professionale che emette il METAR è l'esperto assistenza al volo (EAV) e/o l'osservatore meteo (AMO) in servizio presso la stazione meteorologica; tale funzione può essere anche accorpata presso l'ARO (Air Traffic Services Reporting Office). Qui sotto vengono riportati i METAR dei principali aeroporti italiani.



LIRQ - Firenze/Peretola, Italy
Distanza dalla stazione: E 13km
Dati ricevuti: 27/05/2017 17:20
Sereno
Sereno
 Vento da N
Vento: N 11 km/h
Temperatura: 29°C
P.to Rugiada: 9°C
Umidità: 29%
Barometro: 1017 hPa
Summary: Sereno
Visibilità: superiore a 10 km
2017/05/27 15:20 LIRQ 271520Z 35006KT 310V040 CAVOK 29/09 Q1017
LIVC - Cimone Mountain, Italy
Distanza dalla stazione: NNO 52km
Dati ricevuti: 26/05/2017 18:55
Non operativo
Nubi sparse
Nubi sparse
 Vento da N
Vento: N 17 km/h
Temperatura: 9°C
Temperatura Vento: 7°C
P.to Rugiada: 5°C
Umidità: 76%
Barometro: 1024 hPa
Nuvole: Nubi sparse
Visibilità: 10 km
Dettaglio nuvole: Nubi sparse 61 m
2017/05/26 16:55 LIVC 261655Z 01009KT 9999 FEW002 09/05 Q1024
 
LIRP - Pisa (civ/It-Afb, Italy
Distanza dalla stazione: OSO 55km
Dati ricevuti: 27/05/2017 17:15
Sereno
Sereno
 Vento da NO
Vento: NO 20 km/h
Temperatura: 27°C
P.to Rugiada: 8°C
Umidità: 30%
Barometro: 1019 hPa
Summary: Sereno
Visibilità: superiore a 10 km
2017/05/27 15:15 LIRP 271515Z 31011KT CAVOK 27/08 Q1019 NOSIG
LIPE - Bologna/Borgo (a, Italy
Distanza dalla stazione: NNE 82km
Dati ricevuti: 27/05/2017 17:20
Sereno
Sereno
 Vento da E
Vento: E 13 km/h
Temperatura: 28°C
P.to Rugiada: 11°C
Umidità: 35%
Barometro: 1019 hPa
Summary: Sereno
Visibilità: superiore a 10 km
2017/05/27 15:20 LIPE 271520Z 09007KT 060V130 CAVOK 28/11 Q1019
 
LIQW - Sarzana/Luni, Italy
Distanza dalla stazione: ONO 90km
Dati ricevuti: 26/05/2017 11:55
Non operativo
Sereno
Sereno
 Vento da S
Vento: S 6 km/h
Temperatura: 24°C
P.to Rugiada: 11°C
Umidità: 44%
Barometro: 1018 hPa
Summary: Sereno
Visibilità: superiore a 10 km
2017/05/26 09:55 LIQW 260955Z 18003KT CAVOK 24/11 Q1018
LIPK - Forli (civ/It-Af, Italy
Distanza dalla stazione: ENE 94km
Dati ricevuti: 26/05/2017 17:50
Non operativo
Sereno
Sereno
 Vento da E
Vento: E 11 km/h
Temperatura: 23°C
P.to Rugiada: 7°C
Umidità: 36%
Barometro: 1017 hPa
Summary: Sereno
Visibilità: superiore a 10 km
2017/05/26 15:50 LIPK 261550Z 09006KT CAVOK 23/07 Q1017
 
LIMT - Cisa Pass, Italy
Distanza dalla stazione: NO 112km
Dati ricevuti: 25/05/2017 11:55
Non operativo
Nebbia
Nebbia
 Vento da N
Vento: N 13 km/h
Temperatura: 13°C
P.to Rugiada: 13°C
Umidità: 100%
Barometro: 1019 hPa
Summary: Nebbia
Visibilità: 0 km
2017/05/25 09:55 LIMT 250955Z 01007KT 0000 FG VV/// 13/13 Q1019 RMK MON INVIS VAL INVIS VIS MIN 0000
LIPC - Cervia (it-Afb), Italy
Distanza dalla stazione: ENE 112km
Dati ricevuti: 27/05/2017 16:55
Sereno
Sereno
 Vento da ESE
Vento: ESE 13 km/h
Temperatura: 25°C
P.to Rugiada: 13°C
Umidità: 47%
Barometro: 1019 hPa
Summary: Sereno
Visibilità: superiore a 10 km
2017/05/27 14:55 LIPC 271455Z 11007KT CAVOK 25/13 Q1019
 
LIRS - Grosseto (it-Afb, Italy
Distanza dalla stazione: S 117km
Dati ricevuti: 27/05/2017 16:55
Parz. nuvoloso
Parz. nuvoloso
 Vento da SO
Vento: SO 17 km/h
Temperatura: 29°C
P.to Rugiada: 11°C
Umidità: 33%
Barometro: 1017 hPa
Nuvole: Parz. nuvoloso
Visibilità: 10 km
Dettaglio nuvole: Parz. nuvoloso 914 m
2017/05/27 14:55 LIRS 271455Z 23009KT 9999 SCT030 29/11 Q1017
LIPF - Ferrara (aut), Italy
Distanza dalla stazione: NNE 122km
Dati ricevuti: 27/05/2017 16:55
Sereno
Sereno
 Vento da S
Vento: S 4 km/h
Temperatura: 29°C
Indice di Calore: 29°C
P.to Rugiada: 16°C
Umidità: 45%
Barometro: 1019 hPa
Summary: Sereno
Visibilità: superiore a 10 km
2017/05/27 14:55 LIPF 271455Z 17002KT CAVOK 29/16 Q1019
 
LIVM - Point Marina/Rav, Italy
Distanza dalla stazione: NE 124km
Dati ricevuti: 18/07/2016 15:55
Non operativo
Sereno
Sereno
 Vento da SE
Vento: SE 11 km/h
Temperatura: 30°C
Indice di Calore: 33°C
P.to Rugiada: 22°C
Umidità: 62%
Barometro: 1018 hPa
Summary: Sereno
Visibilità: superiore a 10 km
2016/07/18 13:55 LIVM 181355Z 14006KT CAVOK 30/22 Q1018 RMK SKC QUK 1 QUL 0 VIS MAR 20 KM VIS MIN 9999
LIMP - Parma, Italy
Distanza dalla stazione: NNO 127km
Dati ricevuti: 27/05/2017 16:50
Sereno
Sereno
 Vento da NNE
Vento: NNE 11 km/h
Temperatura: 29°C
P.to Rugiada: 11°C
Umidità: 33%
Barometro: 1018 hPa
Summary: Sereno
Visibilità: superiore a 10 km
2017/05/27 14:50 LIMP 271450Z 03006KT CAVOK 29/11 Q1018
 
LIPR - Rimini (civ/It-A, Italy
Distanza dalla stazione: ENE 129km
Dati ricevuti: 27/05/2017 17:15
Sereno
Sereno
 Vento da ENE
Vento: ENE 9 km/h
Temperatura: 24°C
P.to Rugiada: 15°C
Umidità: 57%
Barometro: 1019 hPa
Summary: Sereno
Visibilità: superiore a 10 km
2017/05/27 15:15 LIPR 271515Z 06005KT CAVOK 24/15 Q1019
LIRX - Monte Calamita, Italy
Distanza dalla stazione: SSO 130km
Dati ricevuti: 27/05/2017 16:55
Sereno
Sereno
 Vento da ESE
Vento: ESE 6 km/h
Temperatura: 27°C
Indice di Calore: 27°C
P.to Rugiada: 14°C
Umidità: 45%
Barometro: 1017 hPa
Summary: Sereno
Visibilità: superiore a 10 km
2017/05/27 14:55 LIRX 271455Z 12003KT CAVOK 27/14 Q1017 RMK SKC VIS MIN 9999 VIS MAR 30 KM
 
LIVF - Frontone, Italy
Distanza dalla stazione: ESE 140km
Dati ricevuti: 26/05/2017 18:55
Non operativo
Sereno
Sereno
 Vento da NE
Vento: NE 4 km/h
Temperatura: 19°C
P.to Rugiada: 3°C
Umidità: 35%
Barometro: 1018 hPa
Summary: Sereno
Visibilità: superiore a 10 km
2017/05/26 16:55 LIVF 261655Z 05002KT CAVOK 19/03 Q1018
LIRZ - Perugia, Italy
Distanza dalla stazione: SE 144km
Dati ricevuti: 27/05/2017 16:50
Nubi sparse
Nubi sparse
 Vento da NNE
Vento: NNE 26 km/h
Temperatura: 26°C
P.to Rugiada: 7°C
Umidità: 30%
Barometro: 1019 hPa
Nuvole: Nubi sparse
Visibilità: 10 km
Dettaglio nuvole: Nubi sparse 1524 m
2017/05/27 14:50 LIRZ 271450Z 02014KT 9999 FEW050 26/07 Q1019
 
LIQO - Mount Argentario, Italy
Distanza dalla stazione: S 160km
Dati ricevuti: 26/05/2017 18:55
Non operativo
Sereno
Sereno
 Vento da NO
Vento: NO 19 km/h
Temperatura: 20°C
P.to Rugiada: -2°C
Umidità: 23%
Barometro: 1017 hPa
Summary: Sereno
Visibilità: superiore a 10 km
2017/05/26 16:55 LIQO 261655Z 32010KT CAVOK 20/M02 Q1017
LIMS - Piacenza (it-Afb, Italy
Distanza dalla stazione: NO 162km
Dati ricevuti: 26/05/2017 19:55
Non operativo
Sereno
Sereno
 Vento da E
Vento: E 11 km/h
Temperatura: 26°C
P.to Rugiada: 9°C
Umidità: 34%
Barometro: 1015 hPa
Summary: Sereno
Visibilità: superiore a 10 km
2017/05/26 17:55 LIMS 261755Z 10006KT CAVOK 26/09 Q1015
 
LIPX - Villafranca(Cv/M, Italy
Distanza dalla stazione: N 176km
Dati ricevuti: 27/05/2017 17:20
Sereno
Sereno
 Vento da SSE
Vento: SSE 11 km/h
Temperatura: 28°C
P.to Rugiada: 12°C
Umidità: 37%
Barometro: 1018 hPa
Summary: Sereno
Visibilità: superiore a 10 km
2017/05/27 15:20 LIPX 271520Z 15006KT 100V200 CAVOK 28/12 Q1018
LIRV - Viterbo (it-Mil), Italy
Distanza dalla stazione: SSE 176km
Dati ricevuti: 27/05/2017 16:55
Nubi sparse
Nubi sparse
 Vento da NNE
Vento: NNE 24 km/h, Raffica: 44 km/h
Temperatura: 26°C
P.to Rugiada: 9°C
Umidità: 34%
Barometro: 1018 hPa
Nuvole: Nubi sparse
Visibilità: 10 km
Dettaglio nuvole: Nubi sparse 1219 m
2017/05/27 14:55 LIRV 271455Z 03013G24KT 9999 FEW040 26/09 Q1018
 
LIPO - Brescia/Montichi, Italy
Distanza dalla stazione: NNO 187km
Dati ricevuti: 27/05/2017 16:50
Sereno
Sereno
 Vento da S
Vento: S 7 km/h
Temperatura: 28°C
P.to Rugiada: 8°C
Umidità: 28%
Barometro: 1018 hPa
Summary: Sereno
Visibilità: superiore a 10 km
2017/05/27 14:50 LIPO 271450Z 19004KT CAVOK 28/08 Q1018
LIMJ - Genova/Sestri, Italy
Distanza dalla stazione: ONO 188km
Dati ricevuti: 27/05/2017 17:20
Sereno
Sereno
 Vento da OSO
Vento: OSO 7 km/h
Temperatura: 24°C
P.to Rugiada: 12°C
Umidità: 47%
Barometro: 1019 hPa
Summary: Sereno
Visibilità: superiore a 10 km
2017/05/27 15:20 LIMJ 271520Z 24004KT 190V270 CAVOK 24/12 Q1019
 
LIPL - Ghedi (it-Afb), Italy
Distanza dalla stazione: NNO 189km
Dati ricevuti: 27/05/2017 16:55
Sereno
Sereno
 Vento da Variabile
Vento: Variabile 0 km/h
Temperatura: 29°C
P.to Rugiada: 9°C
Umidità: 29%
Barometro: 1019 hPa
Summary: Sereno
Visibilità: superiore a 10 km
2017/05/27 14:55 LIPL 271455Z /////KT CAVOK 29/09 Q1019 RMK SKC VIS MIN 9999 WIND THR31 19003KT BLU
LIPY - Falconara (it-Af, Italy
Distanza dalla stazione: E 189km
Dati ricevuti: 27/05/2017 16:50
Sereno
Sereno
 Vento da NNO
Vento: NNO 13 km/h
Temperatura: 24°C
P.to Rugiada: 13°C
Umidità: 50%
Barometro: 1019 hPa
Summary: Sereno
Visibilità: superiore a 10 km
2017/05/27 14:50 LIPY 271450Z 34007KT CAVOK 24/13 Q1019
 
LFKB - Bastia/Poretta, France
Distanza dalla stazione: SO 190km
Dati ricevuti: 27/05/2017 17:30
Sereno
Sereno
 Vento da ESE
Vento: ESE 9 km/h
Temperatura: 28°C
P.to Rugiada: 6°C
Umidità: 25%
Barometro: 1018 hPa
Summary: Sereno
Visibilità: superiore a 10 km
2017/05/27 15:30 LFKB 271530Z 11005KT 060V140 CAVOK 28/06 Q1018 NOSIG
LIMV - Giovi Pass, Italy
Distanza dalla stazione: ONO 191km
Dati ricevuti: 26/05/2017 18:55
Non operativo
Sereno
Sereno
 Vento da Variabile
Vento: Variabile 0 km/h
Temperatura: 21°C
P.to Rugiada: 5°C
Umidità: 35%
Barometro: 1018 hPa
Summary: Sereno
Visibilità: superiore a 10 km
2017/05/26 16:55 LIMV 261655Z /////KT CAVOK 21/05 Q1018